Jack Brusco — WDC3066 — position and weather

sailwx.info

Track history (hours):
 
Tides and Currents Weather Stations Pressure Air Temp Water Temp Dewpoint Dewpoint Depression Visibility Wind Speed Wind Dir Waves Ship Positions

Jack Brusco

Owner: Brusco Tug & Barge, Inc., Longview, WA. More information available from US FCC via Universal Licensing System and Coast Guard Vessel Documentation Center.

Last reported at 2015-Mar-03 03:33 UTC. Time now 2015-Mar-04 08:36 UTC.
Position N 49°27' W 123°18'.

Length 36 m; draft 5.2 m.

Type: Tug. MMSI: 3699086.

Date/timePositionNaut miles runAvg speedWind from/ knotsBaromVisibWave heightAir tempDewpointWater temp
2015-Mar-03 03:33N 49°27' W 123°18'7 6.9
2015-Mar-03 02:33N 49°20' W 123°20'7 7.4
2015-Mar-03 01:33N 49°13' W 123°23'7 7.0
2015-Mar-03 00:33N 49°06' W 123°24'7 6.8
2015-Mar-02 23:33N 49°01' W 123°16'7 6.9
2015-Mar-02 22:33N 48°57' W 123°08'7 7.4
2015-Mar-02 21:33N 48°51' W 123°01'7 6.8
2015-Mar-02 20:31N 48°44' W 123°06'7 7.3
2015-Mar-02 19:31N 48°40' W 123°14'7 7.5
2015-Mar-02 18:33N 48°33' W 123°12'7 6.6
2015-Mar-02 17:33N 48°26' W 123°10'6 6.0
2015-Mar-02 16:33N 48°21' W 123°15'8 7.1
2015-Mar-02 15:27N 48°16' W 123°24'6 6.8
2015-Mar-02 14:33N 48°13' W 123°32'5 5.3
2015-Mar-02 13:33N 48°12' W 123°40'6 6.2
2015-Mar-02 12:33N 48°12' W 123°49'10 7.2
2015-Mar-02 11:09N 48°15' W 124°04'6 8.2
2015-Mar-02 10:25N 48°17' W 124°12'7 8.3
2015-Mar-02 09:31N 48°20' W 124°22'8 7.9
2015-Mar-02 08:33N 48°23' W 124°32'7 7.2
2015-Mar-02 07:33N 48°26' W 124°43'8 7.8
2015-Mar-02 06:31N 48°21' W 124°52'  
2015-Feb-26 07:15N 46°11' W 124°16'133 8.8
2015-Feb-25 16:09N 48°22' W 124°52'5 7.7
2015-Feb-25 15:31N 48°25' W 124°48'8 7.9
2015-Feb-25 14:33N 48°25' W 124°36'9 8.7
2015-Feb-25 13:33N 48°21' W 124°24'9 8.5
2015-Feb-25 12:30N 48°17' W 124°12'13 9.0
2015-Feb-25 11:04N 48°12' W 123°55'5 9.0
2015-Feb-25 10:29N 48°12' W 123°47'9 9.4
2015-Feb-25 09:32N 48°13' W 123°34'9 8.8
2015-Feb-25 08:33N 48°17' W 123°22'9 8.9
2015-Feb-25 07:33N 48°23' W 123°13'10 9.9
2015-Feb-25 06:33N 48°33' W 123°13'9 8.3
2015-Feb-25 05:31N 48°42' W 123°16'8 7.6
2015-Feb-25 04:30N 48°45' W 123°06'5 5.0
2015-Feb-25 03:34N 48°50' W 123°05'8 8.3
2015-Feb-25 02:33N 48°56' W 123°14'8 8.5
2015-Feb-25 01:33N 49°02' W 123°23'4 4.2
2015-Feb-25 00:33N 49°06' W 123°26'1 1.1
2015-Feb-24 23:33N 49°05' W 123°25'6 5.6
2015-Feb-24 22:33N 49°00' W 123°20'7 6.6
2015-Feb-24 21:33N 48°55' W 123°13'7 6.5
2015-Feb-24 20:32N 48°51' W 123°06'6 5.9
2015-Feb-24 19:32N 48°45' W 123°03'8 8.6
2015-Feb-24 18:33N 48°41' W 123°15'10 9.7
2015-Feb-24 17:33N 48°32' W 123°11'1010.0
2015-Feb-24 16:33N 48°22' W 123°14'1211.6
2015-Feb-24 15:33N 48°14' W 123°27'1110.6
2015-Feb-24 14:31N 48°12' W 123°43'118 7.7
2015-Feb-23 23:13N 46°15' W 124°04'710.6
2015-Feb-23 22:33N 46°12' W 123°55'3 3.5
2015-Feb-23 21:34N 46°12' W 123°50'0 0.0
2015-Feb-23 20:34N 46°12' W 123°50'0 0.0
2015-Feb-23 19:34N 46°12' W 123°50'4 4.2
2015-Feb-23 18:33N 46°13' W 123°45'  
Track history (hours):
 
Tides and Currents Weather Stations Pressure Air Temp Water Temp Dewpoint Dewpoint Depression Visibility Wind Speed Wind Dir Waves Ship Positions

Jack Brusco

Owner: Brusco Tug & Barge, Inc., Longview, WA. More information available from US FCC via Universal Licensing System and Coast Guard Vessel Documentation Center.

Last reported at 2015-Mar-03 03:33 UTC. Time now 2015-Mar-04 08:36 UTC.
Position N 49°27' W 123°18'.

Length 36 m; draft 5.2 m.

Type: Tug. MMSI: 3699086.

Date/timePositionNaut miles runAvg speedWind from/ knotsBaromVisibWave heightAir tempDewpointWater temp
2015-Mar-03 03:33N 49°27' W 123°18'7 6.9
2015-Mar-03 02:33N 49°20' W 123°20'7 7.4
2015-Mar-03 01:33N 49°13' W 123°23'7 7.0
2015-Mar-03 00:33N 49°06' W 123°24'7 6.8
2015-Mar-02 23:33N 49°01' W 123°16'7 6.9
2015-Mar-02 22:33N 48°57' W 123°08'7 7.4
2015-Mar-02 21:33N 48°51' W 123°01'7 6.8
2015-Mar-02 20:31N 48°44' W 123°06'7 7.3
2015-Mar-02 19:31N 48°40' W 123°14'7 7.5
2015-Mar-02 18:33N 48°33' W 123°12'7 6.6
2015-Mar-02 17:33N 48°26' W 123°10'6 6.0
2015-Mar-02 16:33N 48°21' W 123°15'8 7.1
2015-Mar-02 15:27N 48°16' W 123°24'6 6.8
2015-Mar-02 14:33N 48°13' W 123°32'5 5.3
2015-Mar-02 13:33N 48°12' W 123°40'6 6.2
2015-Mar-02 12:33N 48°12' W 123°49'10 7.2
2015-Mar-02 11:09N 48°15' W 124°04'6 8.2
2015-Mar-02 10:25N 48°17' W 124°12'7 8.3
2015-Mar-02 09:31N 48°20' W 124°22'8 7.9
2015-Mar-02 08:33N 48°23' W 124°32'7 7.2
2015-Mar-02 07:33N 48°26' W 124°43'8 7.8
2015-Mar-02 06:31N 48°21' W 124°52'  
2015-Feb-26 07:15N 46°11' W 124°16'133 8.8
2015-Feb-25 16:09N 48°22' W 124°52'5 7.7
2015-Feb-25 15:31N 48°25' W 124°48'8 7.9
2015-Feb-25 14:33N 48°25' W 124°36'9 8.7
2015-Feb-25 13:33N 48°21' W 124°24'9 8.5
2015-Feb-25 12:30N 48°17' W 124°12'13 9.0
2015-Feb-25 11:04N 48°12' W 123°55'5 9.0
2015-Feb-25 10:29N 48°12' W 123°47'9 9.4
2015-Feb-25 09:32N 48°13' W 123°34'9 8.8
2015-Feb-25 08:33N 48°17' W 123°22'9 8.9
2015-Feb-25 07:33N 48°23' W 123°13'10 9.9
2015-Feb-25 06:33N 48°33' W 123°13'9 8.3
2015-Feb-25 05:31N 48°42' W 123°16'8 7.6
2015-Feb-25 04:30N 48°45' W 123°06'5 5.0
2015-Feb-25 03:34N 48°50' W 123°05'8 8.3
2015-Feb-25 02:33N 48°56' W 123°14'8 8.5
2015-Feb-25 01:33N 49°02' W 123°23'4 4.2
2015-Feb-25 00:33N 49°06' W 123°26'1 1.1
2015-Feb-24 23:33N 49°05' W 123°25'6 5.6
2015-Feb-24 22:33N 49°00' W 123°20'7 6.6
2015-Feb-24 21:33N 48°55' W 123°13'7 6.5
2015-Feb-24 20:32N 48°51' W 123°06'6 5.9
2015-Feb-24 19:32N 48°45' W 123°03'8 8.6
2015-Feb-24 18:33N 48°41' W 123°15'10 9.7
2015-Feb-24 17:33N 48°32' W 123°11'1010.0
2015-Feb-24 16:33N 48°22' W 123°14'1211.6
2015-Feb-24 15:33N 48°14' W 123°27'1110.6
2015-Feb-24 14:31N 48°12' W 123°43'118 7.7
2015-Feb-23 23:13N 46°15' W 124°04'710.6
2015-Feb-23 22:33N 46°12' W 123°55'3 3.5
2015-Feb-23 21:34N 46°12' W 123°50'0 0.0
2015-Feb-23 20:34N 46°12' W 123°50'0 0.0
2015-Feb-23 19:34N 46°12' W 123°50'4 4.2
2015-Feb-23 18:33N 46°13' W 123°45'  

Dump ship's entire track history